Osage River (Missouri), Taberville (06918250)

StateMissouriLatestPoor (854 cfs)
RiverOsage RiverRatingObservedEstimated
Updated2020-08-07 11:45 (1 hour ago)Flood - The river is flooding. Obstacles can be treacherous or deadly. The river should be avoided at this stage for casual trips and definitely for the inexperienced. Trips should be attempted only with protective gear and equipment.Flood(none)38403
Discharge854 cfs (median: 154 cfs)High - The river is high and potentially dangerous, especially for the young and / or inexperienced. Normal stream obstacles are sometimes difficult to navigate. Extended distances can be attempted, but canoe travel may not be advisable.High(none)7197
Height11.67 feetGood - Conditions are ideal for a canoe or kayak. Boats typically will drag on fewer than one-quarter of riffles, if at all, and portages are unnecessary or rare. Normal float lengths can be attempted without a problem.Good(none)4305
TrendRising (falling over 24 hours)Low - River is low but can still be floated. Some riffles are okay but most come with significant dragging and might need a portage. Float lengths should be reduced to accommodate low flow, dragging, and portages.Low(none)1188
USGSExternal icon USGS Site (External icon Google Maps)Poor - River is too low to float comfortably. Most or all riffles will drag or must be portaged and some obstacles (such as slick shelf rock) cause undue problems. Avoid the river at this stage for casual paddling trips.Poor(none)50

Trending Data

Plot Image

Trips for Osage River (Missouri), Taberville (06918250)

DateStartEndDistanceConditionDischargeHeightFishingDetails

A total of 0 rows are displayed.

Condition Descriptions

Fishing Conditions

Fish Species

Notes

Classic Trip List

The classic River Trips application is still available for use. It is updated with the new system using a data retrofit. It is no longer maintained. The original River Trips application is no longer updated (as of 1 Dec 2016) but can be checked for errors or for the condition of the data before it was converted to the new system.

Gauge Data Table

ObservationHeightDischargeMaximum
Discharge
Minimum
Discharge
Mean
Discharge
P05P10P20P25P50
(Median)
P75P80P90P95
2020-08-07 11:45 11.67 854 19000 (2019) 50 (2011) 4190 50 50 50 154 8810 13700 19000
2020-08-07 10:45 11.66 848 19000 (2019) 50 (2011) 4190 50 50 50 154 8810 13700 19000
2020-08-07 09:45 11.69 865 19000 (2019) 50 (2011) 4190 50 50 50 154 8810 13700 19000
2020-08-07 08:45 11.68 859 19000 (2019) 50 (2011) 4190 50 50 50 154 8810 13700 19000
2020-08-07 07:45 11.69 865 19000 (2019) 50 (2011) 4190 50 50 50 154 8810 13700 19000
2020-08-07 06:45 11.66 848 19000 (2019) 50 (2011) 4190 50 50 50 154 8810 13700 19000
2020-08-07 05:45 11.64 836 19000 (2019) 50 (2011) 4190 50 50 50 154 8810 13700 19000
2020-08-07 04:45 11.57 796 19000 (2019) 50 (2011) 4190 50 50 50 154 8810 13700 19000
2020-08-07 03:45 11.59 807 19000 (2019) 50 (2011) 4190 50 50 50 154 8810 13700 19000
2020-08-07 02:45 11.60 813 19000 (2019) 50 (2011) 4190 50 50 50 154 8810 13700 19000
2020-08-07 01:45 11.62 824 19000 (2019) 50 (2011) 4190 50 50 50 154 8810 13700 19000
2020-08-07 00:45 11.65 842 19000 (2019) 50 (2011) 4190 50 50 50 154 8810 13700 19000
2020-08-06 23:45 11.69 865 19600 (2019) 50 (2011) 3800 50 50 50 281 6660 12600 19600
2020-08-06 22:45 11.75 902 19600 (2019) 50 (2011) 3800 50 50 50 281 6660 12600 19600
2020-08-06 21:45 11.80 933 19600 (2019) 50 (2011) 3800 50 50 50 281 6660 12600 19600
2020-08-06 20:45 11.86 971 19600 (2019) 50 (2011) 3800 50 50 50 281 6660 12600 19600
2020-08-06 19:45 11.92 1010 19600 (2019) 50 (2011) 3800 50 50 50 281 6660 12600 19600
2020-08-06 18:45 11.95 1030 19600 (2019) 50 (2011) 3800 50 50 50 281 6660 12600 19600
2020-08-06 17:45 12.00 1060 19600 (2019) 50 (2011) 3800 50 50 50 281 6660 12600 19600
2020-08-06 16:45 12.05 1100 19600 (2019) 50 (2011) 3800 50 50 50 281 6660 12600 19600
2020-08-06 15:45 12.07 1110 19600 (2019) 50 (2011) 3800 50 50 50 281 6660 12600 19600
2020-08-06 14:45 12.09 1130 19600 (2019) 50 (2011) 3800 50 50 50 281 6660 12600 19600
2020-08-06 13:45 12.13 1160 19600 (2019) 50 (2011) 3800 50 50 50 281 6660 12600 19600
2020-08-06 12:45 12.16 1180 19600 (2019) 50 (2011) 3800 50 50 50 281 6660 12600 19600
2020-08-06 11:45 12.24 1240 19600 (2019) 50 (2011) 3800 50 50 50 281 6660 12600 19600
2020-08-06 10:45 12.26 1250 19600 (2019) 50 (2011) 3800 50 50 50 281 6660 12600 19600
2020-08-06 09:45 12.24 1240 19600 (2019) 50 (2011) 3800 50 50 50 281 6660 12600 19600
2020-08-06 08:45 12.27 1260 19600 (2019) 50 (2011) 3800 50 50 50 281 6660 12600 19600
2020-08-06 07:45 12.30 1280 19600 (2019) 50 (2011) 3800 50 50 50 281 6660 12600 19600
2020-08-06 06:45 12.30 1280 19600 (2019) 50 (2011) 3800 50 50 50 281 6660 12600 19600
2020-08-06 05:45 12.28 1270 19600 (2019) 50 (2011) 3800 50 50 50 281 6660 12600 19600
2020-08-06 04:45 12.26 1250 19600 (2019) 50 (2011) 3800 50 50 50 281 6660 12600 19600
2020-08-06 03:45 12.24 1240 19600 (2019) 50 (2011) 3800 50 50 50 281 6660 12600 19600
2020-08-06 02:45 12.21 1210 19600 (2019) 50 (2011) 3800 50 50 50 281 6660 12600 19600
2020-08-06 01:45 12.18 1190 19600 (2019) 50 (2011) 3800 50 50 50 281 6660 12600 19600
2020-08-06 00:45 12.17 1180 19600 (2019) 50 (2011) 3800 50 50 50 281 6660 12600 19600

A total of 36 rows are displayed for years 2011 through 2019.